sensor_id;sensor_type;location;lat;lon;timestamp;temperature;humidity
36586;DHT22;22591;48.314;11.562;2023-03-01T00:01:17;1.50;99.90
36586;DHT22;22591;48.314;11.562;2023-03-01T00:03:43;1.50;99.90
36586;DHT22;22591;48.314;11.562;2023-03-01T00:06:09;1.50;99.90
36586;DHT22;22591;48.314;11.562;2023-03-01T00:08:35;1.50;99.90
36586;DHT22;22591;48.314;11.562;2023-03-01T00:11:13;1.50;99.90
36586;DHT22;22591;48.314;11.562;2023-03-01T00:13:39;1.50;99.90
36586;DHT22;22591;48.314;11.562;2023-03-01T00:16:07;1.50;99.90
36586;DHT22;22591;48.314;11.562;2023-03-01T00:18:33;1.40;99.90
36586;DHT22;22591;48.314;11.562;2023-03-01T00:20:59;1.40;99.90
36586;DHT22;22591;48.314;11.562;2023-03-01T00:23:25;1.40;99.90
36586;DHT22;22591;48.314;11.562;2023-03-01T00:25:51;1.40;99.90
36586;DHT22;22591;48.314;11.562;2023-03-01T00:28:17;1.40;99.90
36586;DHT22;22591;48.314;11.562;2023-03-01T00:30:43;1.40;99.90
36586;DHT22;22591;48.314;11.562;2023-03-01T00:33:08;1.40;99.90
36586;DHT22;22591;48.314;11.562;2023-03-01T00:35:34;1.40;99.90
36586;DHT22;22591;48.314;11.562;2023-03-01T00:38:00;1.40;99.90
36586;DHT22;22591;48.314;11.562;2023-03-01T00:40:31;1.40;99.90
36586;DHT22;22591;48.314;11.562;2023-03-01T00:42:57;1.40;99.90
36586;DHT22;22591;48.314;11.562;2023-03-01T00:45:23;1.40;99.90
36586;DHT22;22591;48.314;11.562;2023-03-01T00:47:50;1.40;99.90
36586;DHT22;22591;48.314;11.562;2023-03-01T00:50:16;1.40;99.90
36586;DHT22;22591;48.314;11.562;2023-03-01T00:52:42;1.40;99.90
36586;DHT22;22591;48.314;11.562;2023-03-01T00:55:08;1.40;99.90
36586;DHT22;22591;48.314;11.562;2023-03-01T00:57:33;1.40;99.90
36586;DHT22;22591;48.314;11.562;2023-03-01T00:59:59;1.40;99.90
36586;DHT22;22591;48.314;11.562;2023-03-01T01:02:25;1.40;99.90
36586;DHT22;22591;48.314;11.562;2023-03-01T01:04:51;1.40;99.90
36586;DHT22;22591;48.314;11.562;2023-03-01T01:07:17;1.40;99.90
36586;DHT22;22591;48.314;11.562;2023-03-01T01:09:42;1.40;99.90
36586;DHT22;22591;48.314;11.562;2023-03-01T01:12:08;1.40;99.90
36586;DHT22;22591;48.314;11.562;2023-03-01T01:14:34;1.40;99.90
36586;DHT22;22591;48.314;11.562;2023-03-01T01:17:00;1.40;99.90
36586;DHT22;22591;48.314;11.562;2023-03-01T01:19:26;1.40;99.90
36586;DHT22;22591;48.314;11.562;2023-03-01T01:21:52;1.40;99.90
36586;DHT22;22591;48.314;11.562;2023-03-01T01:24:18;1.40;99.90
36586;DHT22;22591;48.314;11.562;2023-03-01T01:26:45;1.40;99.90
36586;DHT22;22591;48.314;11.562;2023-03-01T01:29:11;1.40;99.90
36586;DHT22;22591;48.314;11.562;2023-03-01T01:31:38;1.40;99.90
36586;DHT22;22591;48.314;11.562;2023-03-01T01:34:06;1.40;99.90
36586;DHT22;22591;48.314;11.562;2023-03-01T01:36:32;1.40;99.90
36586;DHT22;22591;48.314;11.562;2023-03-01T01:38:58;1.40;99.90
36586;DHT22;22591;48.314;11.562;2023-03-01T01:41:26;1.30;99.90
36586;DHT22;22591;48.314;11.562;2023-03-01T01:46:39;1.40;99.90
36586;DHT22;22591;48.314;11.562;2023-03-01T01:49:11;1.40;99.90
36586;DHT22;22591;48.314;11.562;2023-03-01T01:51:44;1.40;99.90
36586;DHT22;22591;48.314;11.562;2023-03-01T01:54:22;1.40;99.90
36586;DHT22;22591;48.314;11.562;2023-03-01T01:56:53;1.40;99.90
36586;DHT22;22591;48.314;11.562;2023-03-01T01:59:21;1.30;99.90
36586;DHT22;22591;48.314;11.562;2023-03-01T02:01:52;1.30;99.90
36586;DHT22;22591;48.314;11.562;2023-03-01T02:04:18;1.30;99.90
36586;DHT22;22591;48.314;11.562;2023-03-01T02:07:05;1.30;99.90
36586;DHT22;22591;48.314;11.562;2023-03-01T02:09:32;1.30;99.90
36586;DHT22;22591;48.314;11.562;2023-03-01T02:11:59;1.30;99.90
36586;DHT22;22591;48.314;11.562;2023-03-01T02:14:25;1.30;99.90
36586;DHT22;22591;48.314;11.562;2023-03-01T02:16:51;1.30;99.90
36586;DHT22;22591;48.314;11.562;2023-03-01T02:19:50;1.30;99.90
36586;DHT22;22591;48.314;11.562;2023-03-01T02:22:25;1.30;99.90
36586;DHT22;22591;48.314;11.562;2023-03-01T02:30:32;1.20;99.90
36586;DHT22;22591;48.314;11.562;2023-03-01T02:32:59;1.30;99.90
36586;DHT22;22591;48.314;11.562;2023-03-01T02:35:31;1.30;99.90
36586;DHT22;22591;48.314;11.562;2023-03-01T02:37:58;1.20;99.90
36586;DHT22;22591;48.314;11.562;2023-03-01T02:40:28;1.20;99.90
36586;DHT22;22591;48.314;11.562;2023-03-01T02:42:58;1.30;99.90
36586;DHT22;22591;48.314;11.562;2023-03-01T02:45:25;1.20;99.90
36586;DHT22;22591;48.314;11.562;2023-03-01T02:47:54;1.20;99.90
36586;DHT22;22591;48.314;11.562;2023-03-01T02:53:13;1.20;99.90
36586;DHT22;22591;48.314;11.562;2023-03-01T02:55:41;1.10;99.90
36586;DHT22;22591;48.314;11.562;2023-03-01T02:58:07;1.10;99.90
36586;DHT22;22591;48.314;11.562;2023-03-01T03:00:39;1.10;99.90
36586;DHT22;22591;48.314;11.562;2023-03-01T03:03:09;0.90;99.90
36586;DHT22;22591;48.314;11.562;2023-03-01T03:05:36;1.20;99.90
36586;DHT22;22591;48.314;11.562;2023-03-01T03:08:03;1.10;99.90
36586;DHT22;22591;48.314;11.562;2023-03-01T03:10:31;1.00;99.90
36586;DHT22;22591;48.314;11.562;2023-03-01T03:13:02;1.10;99.90
36586;DHT22;22591;48.314;11.562;2023-03-01T03:15:29;1.00;99.90
36586;DHT22;22591;48.314;11.562;2023-03-01T03:17:56;1.00;99.90
36586;DHT22;22591;48.314;11.562;2023-03-01T03:20:24;1.00;99.90
36586;DHT22;22591;48.314;11.562;2023-03-01T03:22:53;1.00;99.90
36586;DHT22;22591;48.314;11.562;2023-03-01T03:25:20;1.00;99.90
36586;DHT22;22591;48.314;11.562;2023-03-01T03:27:47;1.00;99.90
36586;DHT22;22591;48.314;11.562;2023-03-01T03:30:16;0.90;99.90
36586;DHT22;22591;48.314;11.562;2023-03-01T03:32:43;0.90;99.90
36586;DHT22;22591;48.314;11.562;2023-03-01T03:35:18;0.90;99.90
36586;DHT22;22591;48.314;11.562;2023-03-01T03:37:44;0.80;99.90
36586;DHT22;22591;48.314;11.562;2023-03-01T03:40:39;0.80;99.90
36586;DHT22;22591;48.314;11.562;2023-03-01T03:43:11;0.80;99.90
36586;DHT22;22591;48.314;11.562;2023-03-01T03:45:37;0.70;99.90
36586;DHT22;22591;48.314;11.562;2023-03-01T03:48:06;0.70;99.90
36586;DHT22;22591;48.314;11.562;2023-03-01T03:50:32;0.70;99.90
36586;DHT22;22591;48.314;11.562;2023-03-01T03:53:00;0.60;99.90
36586;DHT22;22591;48.314;11.562;2023-03-01T03:55:25;0.60;99.90
36586;DHT22;22591;48.314;11.562;2023-03-01T03:57:57;0.50;99.90
36586;DHT22;22591;48.314;11.562;2023-03-01T04:00:23;0.40;99.90
36586;DHT22;22591;48.314;11.562;2023-03-01T04:02:50;0.20;99.90
36586;DHT22;22591;48.314;11.562;2023-03-01T04:05:17;0.00;99.90
36586;DHT22;22591;48.314;11.562;2023-03-01T04:07:44;-0.20;99.90
36586;DHT22;22591;48.314;11.562;2023-03-01T04:10:13;-0.30;99.90
36586;DHT22;22591;48.314;11.562;2023-03-01T04:12:39;-0.50;99.90
36586;DHT22;22591;48.314;11.562;2023-03-01T04:15:06;-0.50;99.90
36586;DHT22;22591;48.314;11.562;2023-03-01T04:17:39;-0.70;99.90
36586;DHT22;22591;48.314;11.562;2023-03-01T04:20:05;-0.70;99.90
36586;DHT22;22591;48.314;11.562;2023-03-01T04:22:32;-0.80;99.90
36586;DHT22;22591;48.314;11.562;2023-03-01T04:24:58;-0.90;99.90
36586;DHT22;22591;48.314;11.562;2023-03-01T04:27:27;-0.90;99.90
36586;DHT22;22591;48.314;11.562;2023-03-01T04:29:53;-1.00;99.90
36586;DHT22;22591;48.314;11.562;2023-03-01T04:32:19;-1.10;99.90
36586;DHT22;22591;48.314;11.562;2023-03-01T04:34:44;-1.10;99.90
36586;DHT22;22591;48.314;11.562;2023-03-01T04:37:10;-1.10;99.90
36586;DHT22;22591;48.314;11.562;2023-03-01T04:39:35;-1.10;99.90
36586;DHT22;22591;48.314;11.562;2023-03-01T04:42:14;-1.20;99.90
36586;DHT22;22591;48.314;11.562;2023-03-01T04:44:39;-1.20;99.90
36586;DHT22;22591;48.314;11.562;2023-03-01T04:47:05;-1.30;99.90
36586;DHT22;22591;48.314;11.562;2023-03-01T04:49:31;-1.30;99.90
36586;DHT22;22591;48.314;11.562;2023-03-01T04:51:57;-1.30;99.90
36586;DHT22;22591;48.314;11.562;2023-03-01T04:54:27;-1.40;99.90
36586;DHT22;22591;48.314;11.562;2023-03-01T04:56:53;-1.40;99.90
36586;DHT22;22591;48.314;11.562;2023-03-01T04:59:19;-1.40;99.90
36586;DHT22;22591;48.314;11.562;2023-03-01T05:01:48;-1.50;99.90
36586;DHT22;22591;48.314;11.562;2023-03-01T05:04:14;-1.50;99.90
36586;DHT22;22591;48.314;11.562;2023-03-01T05:06:39;-1.50;99.90
36586;DHT22;22591;48.314;11.562;2023-03-01T05:09:05;-1.50;99.90
36586;DHT22;22591;48.314;11.562;2023-03-01T05:11:30;-1.50;99.90
36586;DHT22;22591;48.314;11.562;2023-03-01T05:14:01;-1.50;99.90
36586;DHT22;22591;48.314;11.562;2023-03-01T05:16:27;-1.60;99.90
36586;DHT22;22591;48.314;11.562;2023-03-01T05:18:53;-1.60;99.90
36586;DHT22;22591;48.314;11.562;2023-03-01T05:21:21;-1.60;99.90
36586;DHT22;22591;48.314;11.562;2023-03-01T05:23:46;-1.60;99.90
36586;DHT22;22591;48.314;11.562;2023-03-01T05:26:12;-1.60;99.90
36586;DHT22;22591;48.314;11.562;2023-03-01T05:28:38;-1.60;99.90
36586;DHT22;22591;48.314;11.562;2023-03-01T05:31:05;-1.60;99.90
36586;DHT22;22591;48.314;11.562;2023-03-01T05:33:41;-1.70;99.90
36586;DHT22;22591;48.314;11.562;2023-03-01T05:36:08;-1.70;99.90
36586;DHT22;22591;48.314;11.562;2023-03-01T05:38:35;-1.70;99.90
36586;DHT22;22591;48.314;11.562;2023-03-01T05:41:01;-1.70;99.90
36586;DHT22;22591;48.314;11.562;2023-03-01T05:43:30;-1.70;99.90
36586;DHT22;22591;48.314;11.562;2023-03-01T05:45:57;-1.70;99.90
36586;DHT22;22591;48.314;11.562;2023-03-01T05:48:23;-1.60;99.90
36586;DHT22;22591;48.314;11.562;2023-03-01T05:50:49;-1.50;99.90
36586;DHT22;22591;48.314;11.562;2023-03-01T05:53:16;-1.50;99.90
36586;DHT22;22591;48.314;11.562;2023-03-01T05:55:43;-1.40;99.90
36586;DHT22;22591;48.314;11.562;2023-03-01T05:58:13;-1.30;99.90
36586;DHT22;22591;48.314;11.562;2023-03-01T06:00:39;-1.20;99.90
36586;DHT22;22591;48.314;11.562;2023-03-01T06:03:05;-1.10;99.90
36586;DHT22;22591;48.314;11.562;2023-03-01T06:05:31;-1.10;99.90
36586;DHT22;22591;48.314;11.562;2023-03-01T06:07:59;-1.00;99.90
36586;DHT22;22591;48.314;11.562;2023-03-01T06:10:25;-0.90;99.90
36586;DHT22;22591;48.314;11.562;2023-03-01T06:12:50;-0.90;99.90
36586;DHT22;22591;48.314;11.562;2023-03-01T06:15:16;-0.80;99.90
36586;DHT22;22591;48.314;11.562;2023-03-01T06:17:43;-0.80;99.90
36586;DHT22;22591;48.314;11.562;2023-03-01T06:20:20;-0.70;99.90
36586;DHT22;22591;48.314;11.562;2023-03-01T06:22:47;-0.70;99.90
36586;DHT22;22591;48.314;11.562;2023-03-01T06:25:19;-0.70;99.90
36586;DHT22;22591;48.314;11.562;2023-03-01T06:27:45;-0.70;99.90
36586;DHT22;22591;48.314;11.562;2023-03-01T06:30:13;-0.70;99.90
36586;DHT22;22591;48.314;11.562;2023-03-01T06:32:39;-0.70;99.90
36586;DHT22;22591;48.314;11.562;2023-03-01T06:35:08;-0.60;99.90
36586;DHT22;22591;48.314;11.562;2023-03-01T06:37:34;-0.50;99.90
36586;DHT22;22591;48.314;11.562;2023-03-01T06:40:01;-0.50;99.90
36586;DHT22;22591;48.314;11.562;2023-03-01T06:42:32;-0.40;99.90
36586;DHT22;22591;48.314;11.562;2023-03-01T06:44:57;-0.30;99.90
36586;DHT22;22591;48.314;11.562;2023-03-01T06:47:23;-0.30;99.90
36586;DHT22;22591;48.314;11.562;2023-03-01T06:49:48;0.10;99.90
36586;DHT22;22591;48.314;11.562;2023-03-01T06:52:14;-0.10;99.90
36586;DHT22;22591;48.314;11.562;2023-03-01T06:54:39;-0.10;99.90
36586;DHT22;22591;48.314;11.562;2023-03-01T06:57:05;0.00;99.90
36586;DHT22;22591;48.314;11.562;2023-03-01T06:59:30;0.10;99.90
36586;DHT22;22591;48.314;11.562;2023-03-01T07:01:56;0.10;99.90
36586;DHT22;22591;48.314;11.562;2023-03-01T07:04:22;0.10;99.90
36586;DHT22;22591;48.314;11.562;2023-03-01T07:06:47;0.20;99.90
36586;DHT22;22591;48.314;11.562;2023-03-01T07:09:19;0.20;99.90
36586;DHT22;22591;48.314;11.562;2023-03-01T07:11:47;0.30;99.90
36586;DHT22;22591;48.314;11.562;2023-03-01T07:14:12;0.40;99.90
36586;DHT22;22591;48.314;11.562;2023-03-01T07:16:38;0.40;99.90
36586;DHT22;22591;48.314;11.562;2023-03-01T07:19:03;0.40;99.90
36586;DHT22;22591;48.314;11.562;2023-03-01T07:21:30;0.50;99.90
36586;DHT22;22591;48.314;11.562;2023-03-01T07:23:56;0.60;99.90
36586;DHT22;22591;48.314;11.562;2023-03-01T07:26:22;0.70;99.90
36586;DHT22;22591;48.314;11.562;2023-03-01T07:28:47;0.80;99.90
36586;DHT22;22591;48.314;11.562;2023-03-01T07:31:14;1.00;99.90
36586;DHT22;22591;48.314;11.562;2023-03-01T07:33:40;1.10;99.90
36586;DHT22;22591;48.314;11.562;2023-03-01T07:36:06;1.10;99.90
36586;DHT22;22591;48.314;11.562;2023-03-01T07:38:32;1.20;99.90
36586;DHT22;22591;48.314;11.562;2023-03-01T07:41:03;1.20;99.90
36586;DHT22;22591;48.314;11.562;2023-03-01T07:43:29;1.30;99.90
36586;DHT22;22591;48.314;11.562;2023-03-01T07:45:58;1.40;99.90
36586;DHT22;22591;48.314;11.562;2023-03-01T07:48:23;1.40;99.90
36586;DHT22;22591;48.314;11.562;2023-03-01T07:50:49;1.60;99.90
36586;DHT22;22591;48.314;11.562;2023-03-01T07:53:14;1.70;99.90
36586;DHT22;22591;48.314;11.562;2023-03-01T07:55:40;1.70;99.90
36586;DHT22;22591;48.314;11.562;2023-03-01T07:58:05;1.60;99.90
36586;DHT22;22591;48.314;11.562;2023-03-01T08:00:31;1.70;99.90
36586;DHT22;22591;48.314;11.562;2023-03-01T08:02:59;1.70;99.90
36586;DHT22;22591;48.314;11.562;2023-03-01T08:05:25;1.80;99.90
36586;DHT22;22591;48.314;11.562;2023-03-01T08:07:51;1.80;99.90
36586;DHT22;22591;48.314;11.562;2023-03-01T08:10:17;1.80;99.90
36586;DHT22;22591;48.314;11.562;2023-03-01T08:12:42;1.80;99.90
36586;DHT22;22591;48.314;11.562;2023-03-01T08:15:08;1.70;99.90
36586;DHT22;22591;48.314;11.562;2023-03-01T08:17:34;1.80;99.90
36586;DHT22;22591;48.314;11.562;2023-03-01T08:19:59;1.80;99.90
36586;DHT22;22591;48.314;11.562;2023-03-01T08:22:25;2.00;99.90
36586;DHT22;22591;48.314;11.562;2023-03-01T08:24:51;2.10;99.90
36586;DHT22;22591;48.314;11.562;2023-03-01T08:27:16;2.10;99.90
36586;DHT22;22591;48.314;11.562;2023-03-01T08:29:42;2.10;99.90
36586;DHT22;22591;48.314;11.562;2023-03-01T08:32:08;2.00;99.90
36586;DHT22;22591;48.314;11.562;2023-03-01T08:34:33;2.00;99.90
36586;DHT22;22591;48.314;11.562;2023-03-01T08:37:01;1.80;99.90
36586;DHT22;22591;48.314;11.562;2023-03-01T08:39:26;1.70;99.90
36586;DHT22;22591;48.314;11.562;2023-03-01T08:41:52;1.70;99.90
36586;DHT22;22591;48.314;11.562;2023-03-01T08:44:18;1.60;99.90
36586;DHT22;22591;48.314;11.562;2023-03-01T08:46:45;1.70;99.90
36586;DHT22;22591;48.314;11.562;2023-03-01T08:49:17;1.80;99.90
36586;DHT22;22591;48.314;11.562;2023-03-01T08:51:44;1.80;99.90
36586;DHT22;22591;48.314;11.562;2023-03-01T08:54:20;1.80;99.90
36586;DHT22;22591;48.314;11.562;2023-03-01T08:56:46;1.80;99.90
36586;DHT22;22591;48.314;11.562;2023-03-01T08:59:13;2.00;99.90
36586;DHT22;22591;48.314;11.562;2023-03-01T09:01:39;2.10;99.90
36586;DHT22;22591;48.314;11.562;2023-03-01T09:04:05;2.30;99.90
36586;DHT22;22591;48.314;11.562;2023-03-01T09:06:35;2.30;99.90
36586;DHT22;22591;48.314;11.562;2023-03-01T09:09:02;2.40;99.90
36586;DHT22;22591;48.314;11.562;2023-03-01T09:11:28;2.60;99.90
36586;DHT22;22591;48.314;11.562;2023-03-01T09:13:53;2.60;99.90
36586;DHT22;22591;48.314;11.562;2023-03-01T09:16:21;2.60;99.90
36586;DHT22;22591;48.314;11.562;2023-03-01T09:18:51;2.60;99.90
36586;DHT22;22591;48.314;11.562;2023-03-01T09:21:19;2.60;99.90
36586;DHT22;22591;48.314;11.562;2023-03-01T09:23:47;2.60;99.90
36586;DHT22;22591;48.314;11.562;2023-03-01T09:26:18;2.80;99.90
36586;DHT22;22591;48.314;11.562;2023-03-01T09:28:45;3.00;99.90
36586;DHT22;22591;48.314;11.562;2023-03-01T09:31:12;3.30;99.90
36586;DHT22;22591;48.314;11.562;2023-03-01T09:33:39;3.30;99.70
36586;DHT22;22591;48.314;11.562;2023-03-01T09:36:07;3.20;99.60
36586;DHT22;22591;48.314;11.562;2023-03-01T09:38:33;3.10;99.60
36586;DHT22;22591;48.314;11.562;2023-03-01T09:41:00;3.30;99.90
36586;DHT22;22591;48.314;11.562;2023-03-01T09:43:43;3.20;99.50
36586;DHT22;22591;48.314;11.562;2023-03-01T09:46:12;3.20;99.40
36586;DHT22;22591;48.314;11.562;2023-03-01T09:48:48;3.10;99.60
36586;DHT22;22591;48.314;11.562;2023-03-01T09:51:21;3.00;99.40
36586;DHT22;22591;48.314;11.562;2023-03-01T09:53:49;3.10;99.80
36586;DHT22;22591;48.314;11.562;2023-03-01T09:56:25;3.10;99.70
36586;DHT22;22591;48.314;11.562;2023-03-01T10:04:47;3.20;99.90
36586;DHT22;22591;48.314;11.562;2023-03-01T10:07:44;3.50;99.80
36586;DHT22;22591;48.314;11.562;2023-03-01T10:10:26;3.60;99.50
36586;DHT22;22591;48.314;11.562;2023-03-01T10:12:53;3.80;99.50
36586;DHT22;22591;48.314;11.562;2023-03-01T10:15:25;3.90;99.30
36586;DHT22;22591;48.314;11.562;2023-03-01T10:18:04;4.00;99.40
36586;DHT22;22591;48.314;11.562;2023-03-01T10:20:46;4.00;99.30
36586;DHT22;22591;48.314;11.562;2023-03-01T10:23:14;4.00;99.60
36586;DHT22;22591;48.314;11.562;2023-03-01T10:29:05;4.10;99.10
36586;DHT22;22591;48.314;11.562;2023-03-01T10:36:38;4.20;98.90
36586;DHT22;22591;48.314;11.562;2023-03-01T10:39:12;4.10;98.60
36586;DHT22;22591;48.314;11.562;2023-03-01T10:44:53;4.10;99.20
36586;DHT22;22591;48.314;11.562;2023-03-01T10:47:25;4.10;99.80
36586;DHT22;22591;48.314;11.562;2023-03-01T10:49:58;4.30;99.70
36586;DHT22;22591;48.314;11.562;2023-03-01T10:52:30;4.50;99.60
36586;DHT22;22591;48.314;11.562;2023-03-01T10:54:59;4.40;99.00
36586;DHT22;22591;48.314;11.562;2023-03-01T10:57:34;4.40;99.10
36586;DHT22;22591;48.314;11.562;2023-03-01T11:00:23;4.40;98.60
36586;DHT22;22591;48.314;11.562;2023-03-01T11:03:10;4.30;98.90
36586;DHT22;22591;48.314;11.562;2023-03-01T11:05:36;4.50;99.10
36586;DHT22;22591;48.314;11.562;2023-03-01T11:08:03;4.60;99.20
36586;DHT22;22591;48.314;11.562;2023-03-01T11:10:32;4.70;99.10
36586;DHT22;22591;48.314;11.562;2023-03-01T11:13:13;4.70;98.80
36586;DHT22;22591;48.314;11.562;2023-03-01T11:15:40;4.60;98.50
36586;DHT22;22591;48.314;11.562;2023-03-01T11:18:19;4.60;99.20
36586;DHT22;22591;48.314;11.562;2023-03-01T11:20:45;4.80;99.20
36586;DHT22;22591;48.314;11.562;2023-03-01T11:23:13;4.70;99.20
36586;DHT22;22591;48.314;11.562;2023-03-01T11:25:42;4.80;99.50
36586;DHT22;22591;48.314;11.562;2023-03-01T11:28:13;4.80;98.90
36586;DHT22;22591;48.314;11.562;2023-03-01T11:30:49;4.90;98.80
36586;DHT22;22591;48.314;11.562;2023-03-01T11:33:33;5.00;99.00
36586;DHT22;22591;48.314;11.562;2023-03-01T11:36:07;5.10;99.00
36586;DHT22;22591;48.314;11.562;2023-03-01T11:38:35;5.10;99.00
36586;DHT22;22591;48.314;11.562;2023-03-01T11:41:12;5.10;99.00
36586;DHT22;22591;48.314;11.562;2023-03-01T11:52:07;5.10;98.30
36586;DHT22;22591;48.314;11.562;2023-03-01T11:57:43;5.10;98.40
36586;DHT22;22591;48.314;11.562;2023-03-01T12:06:10;5.20;98.40
36586;DHT22;22591;48.314;11.562;2023-03-01T12:08:41;5.30;98.70
36586;DHT22;22591;48.314;11.562;2023-03-01T12:14:28;5.40;98.60
36586;DHT22;22591;48.314;11.562;2023-03-01T12:17:05;5.40;98.20
36586;DHT22;22591;48.314;11.562;2023-03-01T12:22:30;5.50;98.40
36586;DHT22;22591;48.314;11.562;2023-03-01T12:25:14;5.60;98.70
36586;DHT22;22591;48.314;11.562;2023-03-01T12:28:05;5.70;98.50
36586;DHT22;22591;48.314;11.562;2023-03-01T12:30:44;5.70;98.20
36586;DHT22;22591;48.314;11.562;2023-03-01T12:38:45;5.80;98.30
36586;DHT22;22591;48.314;11.562;2023-03-01T12:46:41;6.00;97.80
36586;DHT22;22591;48.314;11.562;2023-03-01T12:49:16;6.10;98.40
36586;DHT22;22591;48.314;11.562;2023-03-01T12:51:55;6.10;98.20
36586;DHT22;22591;48.314;11.562;2023-03-01T12:54:31;6.20;98.50
36586;DHT22;22591;48.314;11.562;2023-03-01T12:57:12;6.20;97.80
36586;DHT22;22591;48.314;11.562;2023-03-01T13:02:49;6.20;98.20
36586;DHT22;22591;48.314;11.562;2023-03-01T13:11:21;6.40;98.50
36586;DHT22;22591;48.314;11.562;2023-03-01T13:13:47;6.50;97.80
36586;DHT22;22591;48.314;11.562;2023-03-01T13:21:38;6.60;98.00
36586;DHT22;22591;48.314;11.562;2023-03-01T13:24:09;6.60;97.70
36586;DHT22;22591;48.314;11.562;2023-03-01T13:29:53;6.70;98.00
36586;DHT22;22591;48.314;11.562;2023-03-01T13:32:29;6.70;98.30
36586;DHT22;22591;48.314;11.562;2023-03-01T13:37:51;6.60;97.40
36586;DHT22;22591;48.314;11.562;2023-03-01T13:42:48;6.40;98.00
36586;DHT22;22591;48.314;11.562;2023-03-01T13:45:32;6.40;98.10
36586;DHT22;22591;48.314;11.562;2023-03-01T13:48:01;6.50;97.80
36586;DHT22;22591;48.314;11.562;2023-03-01T13:50:38;6.60;98.10
36586;DHT22;22591;48.314;11.562;2023-03-01T13:53:14;6.60;98.50
36586;DHT22;22591;48.314;11.562;2023-03-01T13:55:47;6.60;98.10
36586;DHT22;22591;48.314;11.562;2023-03-01T13:58:26;6.70;98.10
36586;DHT22;22591;48.314;11.562;2023-03-01T14:01:31;6.70;98.00
36586;DHT22;22591;48.314;11.562;2023-03-01T14:03:57;6.70;97.50
36586;DHT22;22591;48.314;11.562;2023-03-01T14:06:28;6.60;97.70
36586;DHT22;22591;48.314;11.562;2023-03-01T14:11:59;6.70;98.10
36586;DHT22;22591;48.314;11.562;2023-03-01T14:20:07;6.80;97.90
36586;DHT22;22591;48.314;11.562;2023-03-01T14:22:34;6.80;97.70
36586;DHT22;22591;48.314;11.562;2023-03-01T14:25:05;6.80;97.90
36586;DHT22;22591;48.314;11.562;2023-03-01T14:27:39;6.80;97.60
36586;DHT22;22591;48.314;11.562;2023-03-01T14:30:22;6.80;97.70
36586;DHT22;22591;48.314;11.562;2023-03-01T14:33:00;6.90;98.00
36586;DHT22;22591;48.314;11.562;2023-03-01T14:35:31;6.90;97.80
36586;DHT22;22591;48.314;11.562;2023-03-01T14:37:57;6.90;98.30
36586;DHT22;22591;48.314;11.562;2023-03-01T14:40:27;7.00;97.90
36586;DHT22;22591;48.314;11.562;2023-03-01T14:42:54;7.00;98.60
36586;DHT22;22591;48.314;11.562;2023-03-01T14:45:20;7.10;98.30
36586;DHT22;22591;48.314;11.562;2023-03-01T14:47:46;7.10;98.20
36586;DHT22;22591;48.314;11.562;2023-03-01T14:50:26;7.10;98.10
36586;DHT22;22591;48.314;11.562;2023-03-01T14:53:02;7.10;98.20
36586;DHT22;22591;48.314;11.562;2023-03-01T14:55:38;7.00;98.00
36586;DHT22;22591;48.314;11.562;2023-03-01T14:58:12;7.10;98.50
36586;DHT22;22591;48.314;11.562;2023-03-01T15:00:38;7.10;98.30
36586;DHT22;22591;48.314;11.562;2023-03-01T15:03:24;7.00;98.20
36586;DHT22;22591;48.314;11.562;2023-03-01T15:05:51;7.00;98.20
36586;DHT22;22591;48.314;11.562;2023-03-01T15:08:20;7.00;97.90
36586;DHT22;22591;48.314;11.562;2023-03-01T15:11:04;7.00;98.20
36586;DHT22;22591;48.314;11.562;2023-03-01T15:13:34;7.00;98.20
36586;DHT22;22591;48.314;11.562;2023-03-01T15:16:12;7.00;98.20
36586;DHT22;22591;48.314;11.562;2023-03-01T15:18:47;7.00;98.40
36586;DHT22;22591;48.314;11.562;2023-03-01T15:21:30;7.00;98.60
36586;DHT22;22591;48.314;11.562;2023-03-01T15:24:05;7.00;98.50
36586;DHT22;22591;48.314;11.562;2023-03-01T15:26:42;7.00;98.60
36586;DHT22;22591;48.314;11.562;2023-03-01T15:29:18;7.10;98.90
36586;DHT22;22591;48.314;11.562;2023-03-01T15:31:55;7.00;98.70
36586;DHT22;22591;48.314;11.562;2023-03-01T15:34:24;7.10;98.60
36586;DHT22;22591;48.314;11.562;2023-03-01T15:36:55;7.10;98.90
36586;DHT22;22591;48.314;11.562;2023-03-01T15:39:31;7.00;99.00
36586;DHT22;22591;48.314;11.562;2023-03-01T15:41:58;7.00;99.00
36586;DHT22;22591;48.314;11.562;2023-03-01T15:44:35;7.00;99.40
36586;DHT22;22591;48.314;11.562;2023-03-01T15:47:05;6.90;99.20
36586;DHT22;22591;48.314;11.562;2023-03-01T15:49:42;6.90;99.50
36586;DHT22;22591;48.314;11.562;2023-03-01T15:52:41;6.90;99.80
36586;DHT22;22591;48.314;11.562;2023-03-01T15:55:22;6.90;99.80
36586;DHT22;22591;48.314;11.562;2023-03-01T15:57:48;6.80;99.70
36586;DHT22;22591;48.314;11.562;2023-03-01T16:00:14;6.80;99.60
36586;DHT22;22591;48.314;11.562;2023-03-01T16:02:41;6.80;99.50
36586;DHT22;22591;48.314;11.562;2023-03-01T16:05:22;6.70;99.80
36586;DHT22;22591;48.314;11.562;2023-03-01T16:07:49;6.70;99.90
36586;DHT22;22591;48.314;11.562;2023-03-01T16:10:16;6.70;99.90
36586;DHT22;22591;48.314;11.562;2023-03-01T16:12:41;6.60;99.90
36586;DHT22;22591;48.314;11.562;2023-03-01T16:15:15;6.60;99.90
36586;DHT22;22591;48.314;11.562;2023-03-01T16:17:41;6.60;99.90
36586;DHT22;22591;48.314;11.562;2023-03-01T16:20:07;6.60;99.90
36586;DHT22;22591;48.314;11.562;2023-03-01T16:22:33;6.50;99.90
36586;DHT22;22591;48.314;11.562;2023-03-01T16:24:59;6.40;99.90
36586;DHT22;22591;48.314;11.562;2023-03-01T16:27:24;6.40;99.90
36586;DHT22;22591;48.314;11.562;2023-03-01T16:29:50;6.40;99.90
36586;DHT22;22591;48.314;11.562;2023-03-01T16:32:15;6.20;99.90
36586;DHT22;22591;48.314;11.562;2023-03-01T16:34:41;6.20;99.90
36586;DHT22;22591;48.314;11.562;2023-03-01T16:37:06;6.10;99.90
36586;DHT22;22591;48.314;11.562;2023-03-01T16:39:32;6.10;99.90
36586;DHT22;22591;48.314;11.562;2023-03-01T16:42:00;6.00;99.90
36586;DHT22;22591;48.314;11.562;2023-03-01T16:44:25;6.00;99.90
36586;DHT22;22591;48.314;11.562;2023-03-01T16:46:51;5.90;99.90
36586;DHT22;22591;48.314;11.562;2023-03-01T16:49:16;5.80;99.90
36586;DHT22;22591;48.314;11.562;2023-03-01T16:51:42;5.80;99.90
36586;DHT22;22591;48.314;11.562;2023-03-01T16:54:08;5.70;99.90
36586;DHT22;22591;48.314;11.562;2023-03-01T16:56:34;5.60;99.90
36586;DHT22;22591;48.314;11.562;2023-03-01T16:59:02;5.50;99.90
36586;DHT22;22591;48.314;11.562;2023-03-01T17:01:28;5.30;99.90
36586;DHT22;22591;48.314;11.562;2023-03-01T17:04:00;5.30;99.90
36586;DHT22;22591;48.314;11.562;2023-03-01T17:06:26;5.20;99.90
36586;DHT22;22591;48.314;11.562;2023-03-01T17:08:52;5.20;99.90
36586;DHT22;22591;48.314;11.562;2023-03-01T17:11:19;5.10;99.90
36586;DHT22;22591;48.314;11.562;2023-03-01T17:13:45;5.00;99.90
36586;DHT22;22591;48.314;11.562;2023-03-01T17:16:14;4.80;99.90